Main page
METAR-TAF:

METAR-TAF

Airports :

RAF Cranwell

Cranwell, England

latitude: 53-02N, longitude: 000-30W, elevation: 67 m

Current weather observation

The report was made 28 minutes ago, at 21:20 UTC
Wind 6 kt from the West
Temperature 6°C
Humidity 87%
Pressure 1035 hPa
Visibility 10 km or more

METAR: EGYD 222120Z AUTO 27006KT 9999 OVC020/// 06/04 Q1035

Time: 21:48 (21:48 UTC)

Forecast

The report was made 8 hours and 0 minutes ago, at 13:48 UTC
Forecast valid from 22 at 15 UTC to 22 at 18 UTC
Wind 6 kt from the West/Southwest
Visibility 10 km or more
Few clouds at a height of 1800 ft
Probability 40% :
Temporary
from 22 at 15 UTC to 22 at 18 UTC
Scattered clouds at a height of 1800 ft

TAF: EGYD 221348Z 2215/2218 25006KT 9999 FEW018 PROB40 TEMPO 2215/2218 SCT018

Weather observations and forecasts of more than 4000 airports (METAR and TAF reports).

The available stations are represented by yellow and red dots on the map.

Hover mouse over dot to see the name of the station.

Then click to see weather observations and forecasts.

To change the map : click on the green buttons with a black cross to zoom in, on the green button with a dash to zoom out, or on the green arrows for adjacent maps.


METAR-TAF: